sensor_id;sensor_type;location;lat;lon;timestamp;temperature;humidity
12043;DHT22;6082;49.306;12.862;2023-11-22T00:00:12;3.80;99.90
12043;DHT22;6082;49.306;12.862;2023-11-22T00:02:39;3.80;99.90
12043;DHT22;6082;49.306;12.862;2023-11-22T00:05:05;3.80;99.90
12043;DHT22;6082;49.306;12.862;2023-11-22T00:07:32;3.80;99.90
12043;DHT22;6082;49.306;12.862;2023-11-22T00:09:58;3.80;99.90
12043;DHT22;6082;49.306;12.862;2023-11-22T00:12:24;3.80;99.90
12043;DHT22;6082;49.306;12.862;2023-11-22T00:14:50;3.80;99.90
12043;DHT22;6082;49.306;12.862;2023-11-22T00:17:16;3.80;99.90
12043;DHT22;6082;49.306;12.862;2023-11-22T00:19:45;3.80;99.90
12043;DHT22;6082;49.306;12.862;2023-11-22T00:22:14;3.80;99.90
12043;DHT22;6082;49.306;12.862;2023-11-22T00:24:40;3.80;99.90
12043;DHT22;6082;49.306;12.862;2023-11-22T00:27:07;3.80;99.90
12043;DHT22;6082;49.306;12.862;2023-11-22T00:29:33;3.80;99.90
12043;DHT22;6082;49.306;12.862;2023-11-22T00:31:59;3.80;99.90
12043;DHT22;6082;49.306;12.862;2023-11-22T00:34:26;3.80;99.90
12043;DHT22;6082;49.306;12.862;2023-11-22T00:36:52;3.80;99.90
12043;DHT22;6082;49.306;12.862;2023-11-22T00:39:18;3.80;99.90
12043;DHT22;6082;49.306;12.862;2023-11-22T00:41:44;3.70;99.90
12043;DHT22;6082;49.306;12.862;2023-11-22T00:44:10;3.70;99.90
12043;DHT22;6082;49.306;12.862;2023-11-22T00:46:36;3.70;99.90
12043;DHT22;6082;49.306;12.862;2023-11-22T00:49:05;3.70;99.90
12043;DHT22;6082;49.306;12.862;2023-11-22T00:51:31;3.70;99.90
12043;DHT22;6082;49.306;12.862;2023-11-22T00:54:01;3.70;99.90
12043;DHT22;6082;49.306;12.862;2023-11-22T00:56:26;3.70;99.90
12043;DHT22;6082;49.306;12.862;2023-11-22T00:58:53;3.70;99.90
12043;DHT22;6082;49.306;12.862;2023-11-22T01:01:22;3.70;99.90
12043;DHT22;6082;49.306;12.862;2023-11-22T01:03:47;3.70;99.90
12043;DHT22;6082;49.306;12.862;2023-11-22T01:06:13;3.60;99.90
12043;DHT22;6082;49.306;12.862;2023-11-22T01:08:39;3.50;99.90
12043;DHT22;6082;49.306;12.862;2023-11-22T01:11:05;3.00;99.90
12043;DHT22;6082;49.306;12.862;2023-11-22T01:13:32;2.90;99.90
12043;DHT22;6082;49.306;12.862;2023-11-22T01:15:58;2.70;99.90
12043;DHT22;6082;49.306;12.862;2023-11-22T01:18:24;2.70;99.90
12043;DHT22;6082;49.306;12.862;2023-11-22T01:20:50;3.00;99.90
12043;DHT22;6082;49.306;12.862;2023-11-22T01:23:16;3.00;99.90
12043;DHT22;6082;49.306;12.862;2023-11-22T01:25:41;3.10;99.90
12043;DHT22;6082;49.306;12.862;2023-11-22T01:28:07;3.10;99.90
12043;DHT22;6082;49.306;12.862;2023-11-22T01:30:33;3.10;99.90
12043;DHT22;6082;49.306;12.862;2023-11-22T01:32:59;3.20;99.90
12043;DHT22;6082;49.306;12.862;2023-11-22T01:35:25;3.20;99.90
12043;DHT22;6082;49.306;12.862;2023-11-22T01:37:51;3.20;99.90
12043;DHT22;6082;49.306;12.862;2023-11-22T01:40:17;3.30;99.90
12043;DHT22;6082;49.306;12.862;2023-11-22T01:42:45;3.20;99.90
12043;DHT22;6082;49.306;12.862;2023-11-22T01:45:11;3.20;99.90
12043;DHT22;6082;49.306;12.862;2023-11-22T01:47:37;3.20;99.90
12043;DHT22;6082;49.306;12.862;2023-11-22T01:50:06;3.30;99.90
12043;DHT22;6082;49.306;12.862;2023-11-22T01:52:34;3.30;99.90
12043;DHT22;6082;49.306;12.862;2023-11-22T01:55:01;3.30;99.90
12043;DHT22;6082;49.306;12.862;2023-11-22T01:57:31;3.30;99.90
12043;DHT22;6082;49.306;12.862;2023-11-22T02:00:08;3.30;99.90
12043;DHT22;6082;49.306;12.862;2023-11-22T02:02:34;3.30;99.90
12043;DHT22;6082;49.306;12.862;2023-11-22T02:04:59;3.30;99.90
12043;DHT22;6082;49.306;12.862;2023-11-22T02:07:28;3.20;99.90
12043;DHT22;6082;49.306;12.862;2023-11-22T02:09:54;3.20;99.90
12043;DHT22;6082;49.306;12.862;2023-11-22T02:12:20;3.10;99.90
12043;DHT22;6082;49.306;12.862;2023-11-22T02:14:46;3.00;99.90
12043;DHT22;6082;49.306;12.862;2023-11-22T02:17:12;3.00;99.90
12043;DHT22;6082;49.306;12.862;2023-11-22T02:19:38;3.00;99.90
12043;DHT22;6082;49.306;12.862;2023-11-22T02:22:03;3.10;99.90
12043;DHT22;6082;49.306;12.862;2023-11-22T02:24:29;3.00;99.90
12043;DHT22;6082;49.306;12.862;2023-11-22T02:26:55;3.00;99.90
12043;DHT22;6082;49.306;12.862;2023-11-22T02:29:21;3.00;99.90
12043;DHT22;6082;49.306;12.862;2023-11-22T02:31:47;3.00;99.90
12043;DHT22;6082;49.306;12.862;2023-11-22T02:34:13;3.00;99.90
12043;DHT22;6082;49.306;12.862;2023-11-22T02:36:42;3.00;99.90
12043;DHT22;6082;49.306;12.862;2023-11-22T02:39:09;3.00;99.90
12043;DHT22;6082;49.306;12.862;2023-11-22T02:41:35;2.90;99.90
12043;DHT22;6082;49.306;12.862;2023-11-22T02:44:01;2.90;99.90
12043;DHT22;6082;49.306;12.862;2023-11-22T02:46:27;2.90;99.90
12043;DHT22;6082;49.306;12.862;2023-11-22T02:48:52;2.80;99.90
12043;DHT22;6082;49.306;12.862;2023-11-22T02:51:20;2.80;99.90
12043;DHT22;6082;49.306;12.862;2023-11-22T02:53:48;2.60;99.90
12043;DHT22;6082;49.306;12.862;2023-11-22T02:56:14;2.60;99.90
12043;DHT22;6082;49.306;12.862;2023-11-22T02:58:40;2.50;99.90
12043;DHT22;6082;49.306;12.862;2023-11-22T03:01:06;2.50;99.90
12043;DHT22;6082;49.306;12.862;2023-11-22T03:03:33;2.60;99.90
12043;DHT22;6082;49.306;12.862;2023-11-22T03:05:59;2.60;99.90
12043;DHT22;6082;49.306;12.862;2023-11-22T03:08:25;2.60;99.90
12043;DHT22;6082;49.306;12.862;2023-11-22T03:10:51;2.60;99.90
12043;DHT22;6082;49.306;12.862;2023-11-22T03:13:17;2.60;99.90
12043;DHT22;6082;49.306;12.862;2023-11-22T03:15:44;2.60;99.90
12043;DHT22;6082;49.306;12.862;2023-11-22T03:18:09;2.70;99.90
12043;DHT22;6082;49.306;12.862;2023-11-22T03:20:36;2.70;99.90
12043;DHT22;6082;49.306;12.862;2023-11-22T03:23:03;2.70;99.90
12043;DHT22;6082;49.306;12.862;2023-11-22T03:25:29;2.70;99.90
12043;DHT22;6082;49.306;12.862;2023-11-22T03:27:55;2.70;99.90
12043;DHT22;6082;49.306;12.862;2023-11-22T03:30:21;2.70;99.90
12043;DHT22;6082;49.306;12.862;2023-11-22T03:32:47;2.70;99.90
12043;DHT22;6082;49.306;12.862;2023-11-22T03:35:13;2.70;99.90
12043;DHT22;6082;49.306;12.862;2023-11-22T03:37:39;2.70;99.90
12043;DHT22;6082;49.306;12.862;2023-11-22T03:40:05;2.70;99.90
12043;DHT22;6082;49.306;12.862;2023-11-22T03:42:31;2.70;99.90
12043;DHT22;6082;49.306;12.862;2023-11-22T03:44:57;2.70;99.90
12043;DHT22;6082;49.306;12.862;2023-11-22T03:47:25;2.70;99.90
12043;DHT22;6082;49.306;12.862;2023-11-22T03:49:50;2.70;99.90
12043;DHT22;6082;49.306;12.862;2023-11-22T03:52:16;2.70;99.90
12043;DHT22;6082;49.306;12.862;2023-11-22T03:54:42;2.70;99.90
12043;DHT22;6082;49.306;12.862;2023-11-22T03:57:07;2.70;99.90
12043;DHT22;6082;49.306;12.862;2023-11-22T03:59:34;2.70;99.90
12043;DHT22;6082;49.306;12.862;2023-11-22T04:02:00;2.70;99.90
12043;DHT22;6082;49.306;12.862;2023-11-22T04:04:26;2.70;99.90
12043;DHT22;6082;49.306;12.862;2023-11-22T04:06:52;2.70;99.90
12043;DHT22;6082;49.306;12.862;2023-11-22T04:09:18;2.70;99.90
12043;DHT22;6082;49.306;12.862;2023-11-22T04:11:45;2.70;99.90
12043;DHT22;6082;49.306;12.862;2023-11-22T04:14:12;2.70;99.90
12043;DHT22;6082;49.306;12.862;2023-11-22T04:16:38;2.60;99.90
12043;DHT22;6082;49.306;12.862;2023-11-22T04:19:03;2.60;99.90
12043;DHT22;6082;49.306;12.862;2023-11-22T04:21:29;2.60;99.90
12043;DHT22;6082;49.306;12.862;2023-11-22T04:23:55;2.60;99.90
12043;DHT22;6082;49.306;12.862;2023-11-22T04:26:21;2.70;99.90
12043;DHT22;6082;49.306;12.862;2023-11-22T04:28:47;2.70;99.90
12043;DHT22;6082;49.306;12.862;2023-11-22T04:31:13;2.70;99.90
12043;DHT22;6082;49.306;12.862;2023-11-22T04:33:38;2.70;99.90
12043;DHT22;6082;49.306;12.862;2023-11-22T04:36:04;2.70;99.90
12043;DHT22;6082;49.306;12.862;2023-11-22T04:38:30;2.70;99.90
12043;DHT22;6082;49.306;12.862;2023-11-22T04:40:56;2.70;99.90
12043;DHT22;6082;49.306;12.862;2023-11-22T04:43:22;2.70;99.90
12043;DHT22;6082;49.306;12.862;2023-11-22T04:45:49;2.60;99.90
12043;DHT22;6082;49.306;12.862;2023-11-22T04:48:15;2.60;99.90
12043;DHT22;6082;49.306;12.862;2023-11-22T04:50:44;2.60;99.90
12043;DHT22;6082;49.306;12.862;2023-11-22T04:53:13;2.50;99.90
12043;DHT22;6082;49.306;12.862;2023-11-22T04:55:38;2.50;99.90
12043;DHT22;6082;49.306;12.862;2023-11-22T04:58:04;2.50;99.90
12043;DHT22;6082;49.306;12.862;2023-11-22T05:00:30;2.40;99.90
12043;DHT22;6082;49.306;12.862;2023-11-22T05:02:56;2.40;99.90
12043;DHT22;6082;49.306;12.862;2023-11-22T05:05:21;2.40;99.90
12043;DHT22;6082;49.306;12.862;2023-11-22T05:07:47;2.40;99.90
12043;DHT22;6082;49.306;12.862;2023-11-22T05:10:13;2.30;99.90
12043;DHT22;6082;49.306;12.862;2023-11-22T05:12:39;2.20;99.90
12043;DHT22;6082;49.306;12.862;2023-11-22T05:15:08;2.20;99.90
12043;DHT22;6082;49.306;12.862;2023-11-22T05:17:34;2.20;99.90
12043;DHT22;6082;49.306;12.862;2023-11-22T05:20:01;2.30;99.90
12043;DHT22;6082;49.306;12.862;2023-11-22T05:22:27;2.20;99.90
12043;DHT22;6082;49.306;12.862;2023-11-22T05:24:52;2.20;99.90
12043;DHT22;6082;49.306;12.862;2023-11-22T05:27:18;2.20;99.90
12043;DHT22;6082;49.306;12.862;2023-11-22T05:29:44;2.10;99.90
12043;DHT22;6082;49.306;12.862;2023-11-22T05:32:09;2.10;99.90
12043;DHT22;6082;49.306;12.862;2023-11-22T05:34:36;2.10;99.90
12043;DHT22;6082;49.306;12.862;2023-11-22T05:37:03;2.00;99.90
12043;DHT22;6082;49.306;12.862;2023-11-22T05:39:31;2.00;99.90
12043;DHT22;6082;49.306;12.862;2023-11-22T05:41:57;2.00;99.90
12043;DHT22;6082;49.306;12.862;2023-11-22T05:44:22;2.00;99.90
12043;DHT22;6082;49.306;12.862;2023-11-22T05:46:48;2.00;99.90
12043;DHT22;6082;49.306;12.862;2023-11-22T05:49:14;2.00;99.90
12043;DHT22;6082;49.306;12.862;2023-11-22T05:51:39;2.00;99.90
12043;DHT22;6082;49.306;12.862;2023-11-22T05:54:06;1.90;99.90
12043;DHT22;6082;49.306;12.862;2023-11-22T05:56:32;1.90;99.90
12043;DHT22;6082;49.306;12.862;2023-11-22T05:58:57;1.80;99.90
12043;DHT22;6082;49.306;12.862;2023-11-22T06:01:25;1.80;99.90
12043;DHT22;6082;49.306;12.862;2023-11-22T06:03:52;1.70;99.90
12043;DHT22;6082;49.306;12.862;2023-11-22T06:06:18;1.70;99.90
12043;DHT22;6082;49.306;12.862;2023-11-22T06:08:47;1.70;99.90
12043;DHT22;6082;49.306;12.862;2023-11-22T06:11:13;1.60;99.90
12043;DHT22;6082;49.306;12.862;2023-11-22T06:13:43;1.70;99.90
12043;DHT22;6082;49.306;12.862;2023-11-22T06:16:09;1.60;99.90
12043;DHT22;6082;49.306;12.862;2023-11-22T06:18:35;1.60;99.90
12043;DHT22;6082;49.306;12.862;2023-11-22T06:21:06;1.60;99.90
12043;DHT22;6082;49.306;12.862;2023-11-22T06:23:32;1.50;99.90
12043;DHT22;6082;49.306;12.862;2023-11-22T06:25:58;1.40;99.90
12043;DHT22;6082;49.306;12.862;2023-11-22T06:28:24;1.40;99.90
12043;DHT22;6082;49.306;12.862;2023-11-22T06:30:50;1.40;99.90
12043;DHT22;6082;49.306;12.862;2023-11-22T06:33:16;1.40;99.90
12043;DHT22;6082;49.306;12.862;2023-11-22T06:35:41;1.40;99.90
12043;DHT22;6082;49.306;12.862;2023-11-22T06:38:08;1.40;99.90
12043;DHT22;6082;49.306;12.862;2023-11-22T06:40:34;1.40;99.90
12043;DHT22;6082;49.306;12.862;2023-11-22T06:42:59;1.40;99.90
12043;DHT22;6082;49.306;12.862;2023-11-22T06:45:25;1.40;99.90
12043;DHT22;6082;49.306;12.862;2023-11-22T06:47:51;1.30;99.90
12043;DHT22;6082;49.306;12.862;2023-11-22T06:50:18;1.30;99.90
12043;DHT22;6082;49.306;12.862;2023-11-22T06:52:44;1.40;99.90
12043;DHT22;6082;49.306;12.862;2023-11-22T06:55:10;1.40;99.90
12043;DHT22;6082;49.306;12.862;2023-11-22T06:57:37;1.40;99.90
12043;DHT22;6082;49.306;12.862;2023-11-22T07:00:04;1.40;99.90
12043;DHT22;6082;49.306;12.862;2023-11-22T07:02:33;1.40;99.90
12043;DHT22;6082;49.306;12.862;2023-11-22T07:05:00;1.50;99.90
12043;DHT22;6082;49.306;12.862;2023-11-22T07:07:26;1.40;99.90
12043;DHT22;6082;49.306;12.862;2023-11-22T07:09:52;1.40;99.90
12043;DHT22;6082;49.306;12.862;2023-11-22T07:12:18;1.40;99.90
12043;DHT22;6082;49.306;12.862;2023-11-22T07:14:44;1.40;99.90
12043;DHT22;6082;49.306;12.862;2023-11-22T07:17:10;1.30;99.90
12043;DHT22;6082;49.306;12.862;2023-11-22T07:19:36;1.20;99.90
12043;DHT22;6082;49.306;12.862;2023-11-22T07:22:06;1.40;99.90
12043;DHT22;6082;49.306;12.862;2023-11-22T07:24:48;1.40;99.90
12043;DHT22;6082;49.306;12.862;2023-11-22T07:27:17;1.40;99.90
12043;DHT22;6082;49.306;12.862;2023-11-22T07:29:44;1.30;99.90
12043;DHT22;6082;49.306;12.862;2023-11-22T07:32:11;1.30;99.90
12043;DHT22;6082;49.306;12.862;2023-11-22T07:34:38;1.40;99.90
12043;DHT22;6082;49.306;12.862;2023-11-22T07:37:08;1.40;99.90
12043;DHT22;6082;49.306;12.862;2023-11-22T07:39:35;1.40;99.90
12043;DHT22;6082;49.306;12.862;2023-11-22T07:42:02;1.50;99.90
12043;DHT22;6082;49.306;12.862;2023-11-22T07:44:28;1.40;99.90
12043;DHT22;6082;49.306;12.862;2023-11-22T07:46:53;1.50;99.90
12043;DHT22;6082;49.306;12.862;2023-11-22T07:49:20;1.50;99.90
12043;DHT22;6082;49.306;12.862;2023-11-22T07:51:48;1.50;99.90
12043;DHT22;6082;49.306;12.862;2023-11-22T07:54:21;1.50;99.90
12043;DHT22;6082;49.306;12.862;2023-11-22T07:56:51;1.50;99.90
12043;DHT22;6082;49.306;12.862;2023-11-22T07:59:20;1.50;99.90
12043;DHT22;6082;49.306;12.862;2023-11-22T08:01:46;1.50;99.90
12043;DHT22;6082;49.306;12.862;2023-11-22T08:04:15;1.50;99.90
12043;DHT22;6082;49.306;12.862;2023-11-22T08:06:42;1.50;99.90
12043;DHT22;6082;49.306;12.862;2023-11-22T08:09:08;1.40;99.90
12043;DHT22;6082;49.306;12.862;2023-11-22T08:11:35;1.40;99.90
12043;DHT22;6082;49.306;12.862;2023-11-22T08:14:02;1.40;99.90
12043;DHT22;6082;49.306;12.862;2023-11-22T08:16:28;1.40;99.90
12043;DHT22;6082;49.306;12.862;2023-11-22T08:18:53;1.40;99.90
12043;DHT22;6082;49.306;12.862;2023-11-22T08:21:19;1.40;99.90
12043;DHT22;6082;49.306;12.862;2023-11-22T08:23:48;1.30;99.90
12043;DHT22;6082;49.306;12.862;2023-11-22T08:26:14;1.20;99.90
12043;DHT22;6082;49.306;12.862;2023-11-22T08:28:40;1.10;99.90
12043;DHT22;6082;49.306;12.862;2023-11-22T08:31:06;1.10;99.90
12043;DHT22;6082;49.306;12.862;2023-11-22T08:33:35;1.20;99.90
12043;DHT22;6082;49.306;12.862;2023-11-22T08:36:01;1.20;99.90
12043;DHT22;6082;49.306;12.862;2023-11-22T08:38:30;1.20;99.90
12043;DHT22;6082;49.306;12.862;2023-11-22T08:41:04;1.20;99.90
12043;DHT22;6082;49.306;12.862;2023-11-22T08:43:34;1.20;99.90
12043;DHT22;6082;49.306;12.862;2023-11-22T08:46:00;1.20;99.90
12043;DHT22;6082;49.306;12.862;2023-11-22T08:48:26;1.20;99.90
12043;DHT22;6082;49.306;12.862;2023-11-22T08:50:52;1.20;99.90
12043;DHT22;6082;49.306;12.862;2023-11-22T08:53:19;1.20;99.90
12043;DHT22;6082;49.306;12.862;2023-11-22T08:55:47;1.20;99.90
12043;DHT22;6082;49.306;12.862;2023-11-22T08:58:12;1.20;99.90
12043;DHT22;6082;49.306;12.862;2023-11-22T09:00:39;1.20;99.90
12043;DHT22;6082;49.306;12.862;2023-11-22T09:03:10;1.10;99.90
12043;DHT22;6082;49.306;12.862;2023-11-22T09:05:42;1.10;99.90
12043;DHT22;6082;49.306;12.862;2023-11-22T09:08:09;1.10;99.90
12043;DHT22;6082;49.306;12.862;2023-11-22T09:10:41;1.10;99.90
12043;DHT22;6082;49.306;12.862;2023-11-22T09:13:10;1.20;99.90
12043;DHT22;6082;49.306;12.862;2023-11-22T09:15:36;1.20;99.90
12043;DHT22;6082;49.306;12.862;2023-11-22T09:18:04;1.20;99.90
12043;DHT22;6082;49.306;12.862;2023-11-22T09:20:30;1.30;99.90
12043;DHT22;6082;49.306;12.862;2023-11-22T09:22:56;1.30;99.90
12043;DHT22;6082;49.306;12.862;2023-11-22T09:25:23;1.30;99.90
12043;DHT22;6082;49.306;12.862;2023-11-22T09:27:54;1.30;99.90
12043;DHT22;6082;49.306;12.862;2023-11-22T09:30:29;1.20;99.90
12043;DHT22;6082;49.306;12.862;2023-11-22T09:33:02;1.20;99.90
12043;DHT22;6082;49.306;12.862;2023-11-22T09:35:28;1.20;99.90
12043;DHT22;6082;49.306;12.862;2023-11-22T09:37:55;1.20;99.90
12043;DHT22;6082;49.306;12.862;2023-11-22T09:40:24;1.20;99.90
12043;DHT22;6082;49.306;12.862;2023-11-22T09:42:52;1.20;99.90
12043;DHT22;6082;49.306;12.862;2023-11-22T09:45:19;1.20;99.90
12043;DHT22;6082;49.306;12.862;2023-11-22T09:47:46;1.10;99.90
12043;DHT22;6082;49.306;12.862;2023-11-22T09:50:20;1.10;99.90
12043;DHT22;6082;49.306;12.862;2023-11-22T09:52:51;1.10;99.90
12043;DHT22;6082;49.306;12.862;2023-11-22T09:55:20;1.00;99.90
12043;DHT22;6082;49.306;12.862;2023-11-22T09:57:48;1.00;99.90
12043;DHT22;6082;49.306;12.862;2023-11-22T10:00:15;0.90;99.90
12043;DHT22;6082;49.306;12.862;2023-11-22T10:02:44;0.80;99.90
12043;DHT22;6082;49.306;12.862;2023-11-22T10:05:10;0.80;99.90
12043;DHT22;6082;49.306;12.862;2023-11-22T10:07:37;0.90;99.90
12043;DHT22;6082;49.306;12.862;2023-11-22T10:10:04;1.00;99.90
12043;DHT22;6082;49.306;12.862;2023-11-22T10:12:31;1.00;99.90
12043;DHT22;6082;49.306;12.862;2023-11-22T10:15:11;1.00;99.90
12043;DHT22;6082;49.306;12.862;2023-11-22T10:17:37;1.00;99.90
12043;DHT22;6082;49.306;12.862;2023-11-22T10:20:03;1.10;99.90
12043;DHT22;6082;49.306;12.862;2023-11-22T10:22:29;1.10;99.90
12043;DHT22;6082;49.306;12.862;2023-11-22T10:24:58;1.10;99.90
12043;DHT22;6082;49.306;12.862;2023-11-22T10:27:26;1.10;99.90
12043;DHT22;6082;49.306;12.862;2023-11-22T10:29:52;1.10;99.90
12043;DHT22;6082;49.306;12.862;2023-11-22T10:32:17;1.10;99.90
12043;DHT22;6082;49.306;12.862;2023-11-22T10:34:43;1.10;99.90
12043;DHT22;6082;49.306;12.862;2023-11-22T10:37:09;1.00;99.90
12043;DHT22;6082;49.306;12.862;2023-11-22T10:39:35;1.00;99.90
12043;DHT22;6082;49.306;12.862;2023-11-22T10:42:05;1.00;99.90
12043;DHT22;6082;49.306;12.862;2023-11-22T10:44:34;1.00;99.90
12043;DHT22;6082;49.306;12.862;2023-11-22T10:47:00;1.10;99.90
12043;DHT22;6082;49.306;12.862;2023-11-22T10:49:26;1.00;99.90
12043;DHT22;6082;49.306;12.862;2023-11-22T10:51:52;1.00;99.90
12043;DHT22;6082;49.306;12.862;2023-11-22T10:54:20;1.00;99.90
12043;DHT22;6082;49.306;12.862;2023-11-22T10:56:54;1.00;99.90
12043;DHT22;6082;49.306;12.862;2023-11-22T10:59:22;1.00;99.90
12043;DHT22;6082;49.306;12.862;2023-11-22T11:01:49;1.10;99.90
12043;DHT22;6082;49.306;12.862;2023-11-22T11:04:29;1.10;99.90
12043;DHT22;6082;49.306;12.862;2023-11-22T11:07:00;1.00;99.90
12043;DHT22;6082;49.306;12.862;2023-11-22T11:09:27;1.00;99.90
12043;DHT22;6082;49.306;12.862;2023-11-22T11:12:00;1.00;99.90
12043;DHT22;6082;49.306;12.862;2023-11-22T11:14:29;1.10;99.90
12043;DHT22;6082;49.306;12.862;2023-11-22T11:16:55;1.10;99.90
12043;DHT22;6082;49.306;12.862;2023-11-22T11:19:24;1.10;99.90
12043;DHT22;6082;49.306;12.862;2023-11-22T11:21:50;1.10;99.90
12043;DHT22;6082;49.306;12.862;2023-11-22T11:24:17;1.10;99.90
12043;DHT22;6082;49.306;12.862;2023-11-22T11:26:50;1.10;99.90
12043;DHT22;6082;49.306;12.862;2023-11-22T11:29:33;1.10;99.90
12043;DHT22;6082;49.306;12.862;2023-11-22T11:31:59;1.10;99.90
12043;DHT22;6082;49.306;12.862;2023-11-22T11:34:25;1.10;99.90
12043;DHT22;6082;49.306;12.862;2023-11-22T11:36:54;1.20;99.90
12043;DHT22;6082;49.306;12.862;2023-11-22T11:39:27;1.20;99.90
12043;DHT22;6082;49.306;12.862;2023-11-22T11:42:13;1.20;99.90
12043;DHT22;6082;49.306;12.862;2023-11-22T11:45:12;1.20;99.90
12043;DHT22;6082;49.306;12.862;2023-11-22T11:47:37;1.30;99.90
12043;DHT22;6082;49.306;12.862;2023-11-22T11:50:03;1.20;99.90
12043;DHT22;6082;49.306;12.862;2023-11-22T11:52:29;1.30;99.90
12043;DHT22;6082;49.306;12.862;2023-11-22T11:54:56;1.30;99.90
12043;DHT22;6082;49.306;12.862;2023-11-22T11:57:23;1.40;99.90
12043;DHT22;6082;49.306;12.862;2023-11-22T11:59:49;1.40;99.90
12043;DHT22;6082;49.306;12.862;2023-11-22T12:02:16;1.40;99.90
12043;DHT22;6082;49.306;12.862;2023-11-22T12:04:42;1.40;99.90
12043;DHT22;6082;49.306;12.862;2023-11-22T12:07:11;1.30;99.90
12043;DHT22;6082;49.306;12.862;2023-11-22T12:09:37;1.40;99.90
12043;DHT22;6082;49.306;12.862;2023-11-22T12:12:03;1.40;99.90
12043;DHT22;6082;49.306;12.862;2023-11-22T12:14:29;1.40;99.90
12043;DHT22;6082;49.306;12.862;2023-11-22T12:16:55;1.40;99.90
12043;DHT22;6082;49.306;12.862;2023-11-22T12:19:25;1.50;99.90
12043;DHT22;6082;49.306;12.862;2023-11-22T12:21:53;1.50;99.90
12043;DHT22;6082;49.306;12.862;2023-11-22T12:24:18;1.50;99.90
12043;DHT22;6082;49.306;12.862;2023-11-22T12:26:48;1.50;99.90
12043;DHT22;6082;49.306;12.862;2023-11-22T12:29:15;1.50;99.90
12043;DHT22;6082;49.306;12.862;2023-11-22T12:34:16;1.50;99.90
12043;DHT22;6082;49.306;12.862;2023-11-22T12:36:42;1.50;99.90
12043;DHT22;6082;49.306;12.862;2023-11-22T12:39:11;1.50;99.90
12043;DHT22;6082;49.306;12.862;2023-11-22T12:41:48;1.50;99.90
12043;DHT22;6082;49.306;12.862;2023-11-22T12:44:14;1.50;99.90
12043;DHT22;6082;49.306;12.862;2023-11-22T12:46:53;1.50;99.90
12043;DHT22;6082;49.306;12.862;2023-11-22T12:49:23;1.50;99.90
12043;DHT22;6082;49.306;12.862;2023-11-22T12:51:51;1.60;99.90
12043;DHT22;6082;49.306;12.862;2023-11-22T12:54:17;1.60;99.90
12043;DHT22;6082;49.306;12.862;2023-11-22T12:56:49;1.50;99.90
12043;DHT22;6082;49.306;12.862;2023-11-22T12:59:24;1.50;99.90
12043;DHT22;6082;49.306;12.862;2023-11-22T13:01:53;1.50;99.90
12043;DHT22;6082;49.306;12.862;2023-11-22T13:04:20;1.50;99.90
12043;DHT22;6082;49.306;12.862;2023-11-22T13:06:45;1.50;99.90
12043;DHT22;6082;49.306;12.862;2023-11-22T13:09:11;1.50;99.90
12043;DHT22;6082;49.306;12.862;2023-11-22T13:11:41;1.50;99.90
12043;DHT22;6082;49.306;12.862;2023-11-22T13:14:07;1.60;99.90
12043;DHT22;6082;49.306;12.862;2023-11-22T13:16:33;1.60;99.90
12043;DHT22;6082;49.306;12.862;2023-11-22T13:19:00;1.50;99.90
12043;DHT22;6082;49.306;12.862;2023-11-22T13:21:26;1.50;99.90
12043;DHT22;6082;49.306;12.862;2023-11-22T13:23:52;1.50;99.90
12043;DHT22;6082;49.306;12.862;2023-11-22T13:26:17;1.50;99.90
12043;DHT22;6082;49.306;12.862;2023-11-22T13:28:43;1.40;99.90
12043;DHT22;6082;49.306;12.862;2023-11-22T13:31:10;1.50;99.90
12043;DHT22;6082;49.306;12.862;2023-11-22T13:33:38;1.50;99.90
12043;DHT22;6082;49.306;12.862;2023-11-22T13:36:04;1.50;99.90
12043;DHT22;6082;49.306;12.862;2023-11-22T13:38:30;1.50;99.90
12043;DHT22;6082;49.306;12.862;2023-11-22T13:40:56;1.60;99.90
12043;DHT22;6082;49.306;12.862;2023-11-22T13:43:22;1.50;99.90
12043;DHT22;6082;49.306;12.862;2023-11-22T13:45:48;1.60;99.90
12043;DHT22;6082;49.306;12.862;2023-11-22T13:48:15;1.60;99.90
12043;DHT22;6082;49.306;12.862;2023-11-22T13:50:41;1.60;99.90
12043;DHT22;6082;49.306;12.862;2023-11-22T13:53:08;1.60;99.90
12043;DHT22;6082;49.306;12.862;2023-11-22T13:55:36;1.60;99.90
12043;DHT22;6082;49.306;12.862;2023-11-22T13:58:02;1.60;99.90
12043;DHT22;6082;49.306;12.862;2023-11-22T14:00:30;1.60;99.90
12043;DHT22;6082;49.306;12.862;2023-11-22T14:03:01;1.60;99.90
12043;DHT22;6082;49.306;12.862;2023-11-22T14:05:32;1.60;99.90
12043;DHT22;6082;49.306;12.862;2023-11-22T14:07:58;1.60;99.90
12043;DHT22;6082;49.306;12.862;2023-11-22T14:10:24;1.60;99.90
12043;DHT22;6082;49.306;12.862;2023-11-22T14:12:50;1.60;99.90
12043;DHT22;6082;49.306;12.862;2023-11-22T14:15:17;1.60;99.90
12043;DHT22;6082;49.306;12.862;2023-11-22T14:17:43;1.60;99.90
12043;DHT22;6082;49.306;12.862;2023-11-22T14:20:12;1.60;99.90
12043;DHT22;6082;49.306;12.862;2023-11-22T14:22:39;1.60;99.90
12043;DHT22;6082;49.306;12.862;2023-11-22T14:25:09;1.70;99.90
12043;DHT22;6082;49.306;12.862;2023-11-22T14:27:39;1.70;99.90
12043;DHT22;6082;49.306;12.862;2023-11-22T14:30:06;1.60;99.90
12043;DHT22;6082;49.306;12.862;2023-11-22T14:32:34;1.70;99.90
12043;DHT22;6082;49.306;12.862;2023-11-22T14:35:03;1.60;99.90
12043;DHT22;6082;49.306;12.862;2023-11-22T14:37:29;1.60;99.90
12043;DHT22;6082;49.306;12.862;2023-11-22T14:39:59;1.70;99.90
12043;DHT22;6082;49.306;12.862;2023-11-22T14:42:25;1.60;99.90
12043;DHT22;6082;49.306;12.862;2023-11-22T14:44:51;1.70;99.90
12043;DHT22;6082;49.306;12.862;2023-11-22T14:47:17;1.70;99.90
12043;DHT22;6082;49.306;12.862;2023-11-22T14:49:49;1.70;99.90
12043;DHT22;6082;49.306;12.862;2023-11-22T14:52:15;1.70;99.90
12043;DHT22;6082;49.306;12.862;2023-11-22T14:54:42;1.70;99.90
12043;DHT22;6082;49.306;12.862;2023-11-22T14:57:09;1.70;99.90
12043;DHT22;6082;49.306;12.862;2023-11-22T14:59:36;1.70;99.90
12043;DHT22;6082;49.306;12.862;2023-11-22T15:02:03;1.80;99.90
12043;DHT22;6082;49.306;12.862;2023-11-22T15:04:32;1.80;99.90
12043;DHT22;6082;49.306;12.862;2023-11-22T15:07:00;1.80;99.90
12043;DHT22;6082;49.306;12.862;2023-11-22T15:09:26;1.80;99.90
12043;DHT22;6082;49.306;12.862;2023-11-22T15:11:51;1.80;99.90
12043;DHT22;6082;49.306;12.862;2023-11-22T15:14:17;1.80;99.90
12043;DHT22;6082;49.306;12.862;2023-11-22T15:16:43;1.80;99.90
12043;DHT22;6082;49.306;12.862;2023-11-22T15:19:09;1.90;99.90
12043;DHT22;6082;49.306;12.862;2023-11-22T15:21:35;1.80;99.90
12043;DHT22;6082;49.306;12.862;2023-11-22T15:24:01;1.70;99.90
12043;DHT22;6082;49.306;12.862;2023-11-22T15:26:28;1.70;99.90
12043;DHT22;6082;49.306;12.862;2023-11-22T15:28:54;1.70;99.90
12043;DHT22;6082;49.306;12.862;2023-11-22T15:31:20;1.70;99.90
12043;DHT22;6082;49.306;12.862;2023-11-22T15:33:48;1.70;99.90
12043;DHT22;6082;49.306;12.862;2023-11-22T15:36:14;1.80;99.90
12043;DHT22;6082;49.306;12.862;2023-11-22T15:38:40;1.80;99.90
12043;DHT22;6082;49.306;12.862;2023-11-22T15:41:06;1.80;99.90
12043;DHT22;6082;49.306;12.862;2023-11-22T15:43:34;1.80;99.90
12043;DHT22;6082;49.306;12.862;2023-11-22T15:46:00;1.80;99.90